createdAt,value
2018-10-16T00:00:28.166Z,14.46
2018-10-16T00:02:03.643Z,14.40
2018-10-16T00:03:39.204Z,14.31
2018-10-16T00:05:15.094Z,14.24
2018-10-16T00:06:50.680Z,14.16
2018-10-16T00:08:26.166Z,14.06
2018-10-16T00:10:01.692Z,14.01
2018-10-16T00:11:37.538Z,14.03
2018-10-16T00:13:13.106Z,14.10
2018-10-16T00:14:48.628Z,14.10
2018-10-16T00:16:24.173Z,14.10
2018-10-16T00:17:59.789Z,14.16
2018-10-16T00:19:35.342Z,14.09
2018-10-16T00:21:10.873Z,14.00
2018-10-16T00:22:46.460Z,13.92
2018-10-16T00:24:22.194Z,13.89
2018-10-16T00:25:57.721Z,13.88
2018-10-16T00:27:33.301Z,13.92
2018-10-16T00:29:08.879Z,14.01
2018-10-16T00:30:44.421Z,13.93
2018-10-16T00:32:19.942Z,13.87
2018-10-16T00:33:55.537Z,13.90
2018-10-16T00:35:32.245Z,13.92
2018-10-16T00:37:07.800Z,14.00
2018-10-16T00:38:43.342Z,13.84
2018-10-16T00:40:18.917Z,13.86
2018-10-16T00:41:55.679Z,13.85
2018-10-16T00:43:31.201Z,13.78
2018-10-16T00:45:07.900Z,13.74
2018-10-16T00:46:44.715Z,13.82
2018-10-16T00:48:20.242Z,13.81
2018-10-16T00:49:55.800Z,13.79
2018-10-16T00:51:31.267Z,13.80
2018-10-16T00:53:06.789Z,13.80
2018-10-16T00:54:42.369Z,13.82
2018-10-16T00:56:18.638Z,13.83
2018-10-16T00:57:54.277Z,13.79
2018-10-16T00:59:29.843Z,13.76
2018-10-16T01:01:05.781Z,13.69
2018-10-16T01:02:42.085Z,13.74
2018-10-16T01:04:17.617Z,13.72
2018-10-16T01:05:53.148Z,13.73
2018-10-16T01:07:28.705Z,13.62
2018-10-16T01:09:08.133Z,13.67
2018-10-16T01:10:43.654Z,13.63
2018-10-16T01:12:19.198Z,13.49
2018-10-16T01:13:56.502Z,13.36
2018-10-16T01:15:32.155Z,13.37
2018-10-16T01:17:07.686Z,13.39
2018-10-16T01:18:43.195Z,13.40
2018-10-16T01:20:18.740Z,13.48
2018-10-16T01:21:54.270Z,13.53
2018-10-16T01:23:29.840Z,13.54
2018-10-16T01:25:06.329Z,13.43
2018-10-16T01:26:41.910Z,13.33
2018-10-16T01:28:17.422Z,13.30
2018-10-16T01:29:53.315Z,13.39
2018-10-16T01:31:28.836Z,13.43
2018-10-16T01:33:04.334Z,13.31
2018-10-16T01:34:39.857Z,13.29
2018-10-16T01:36:15.313Z,13.22
2018-10-16T01:37:50.937Z,13.25
2018-10-16T01:39:26.485Z,13.22
2018-10-16T01:41:01.997Z,13.25
2018-10-16T01:42:37.718Z,13.23
2018-10-16T01:44:13.350Z,13.18
2018-10-16T01:45:48.865Z,13.16
2018-10-16T01:47:24.360Z,13.15
2018-10-16T01:48:59.893Z,12.91
2018-10-16T01:50:35.409Z,13.08
2018-10-16T01:52:10.909Z,13.10
2018-10-16T01:53:46.413Z,12.99
2018-10-16T01:55:21.964Z,12.90
2018-10-16T01:56:57.493Z,12.97
2018-10-16T01:58:33.069Z,13.05
2018-10-16T02:00:09.885Z,12.98
2018-10-16T02:01:45.469Z,12.81
2018-10-16T02:03:21.029Z,12.81
2018-10-16T02:04:56.598Z,12.69
2018-10-16T02:06:32.177Z,12.76
2018-10-16T02:08:08.645Z,12.66
2018-10-16T02:09:44.189Z,12.57
2018-10-16T02:11:19.753Z,12.56
2018-10-16T02:12:55.357Z,12.47
2018-10-16T02:14:30.935Z,12.49
2018-10-16T02:16:06.410Z,12.59
2018-10-16T02:17:41.932Z,12.64
2018-10-16T02:19:17.389Z,12.74
2018-10-16T02:20:52.948Z,12.70
2018-10-16T02:22:28.513Z,12.65
2018-10-16T02:24:04.042Z,12.68
2018-10-16T02:25:39.545Z,12.77
2018-10-16T02:27:15.212Z,12.76
2018-10-16T02:28:50.785Z,12.78
2018-10-16T02:30:26.307Z,12.60
2018-10-16T02:32:01.811Z,12.47
2018-10-16T02:33:37.435Z,12.34
2018-10-16T02:35:12.975Z,12.37
2018-10-16T02:36:48.536Z,12.46
2018-10-16T02:38:24.086Z,12.37
2018-10-16T02:39:59.595Z,12.32
2018-10-16T02:41:35.097Z,12.41
2018-10-16T02:43:10.619Z,12.43
2018-10-16T02:44:46.117Z,12.52
2018-10-16T02:46:21.652Z,12.54
2018-10-16T02:47:57.397Z,12.60
2018-10-16T02:49:32.952Z,12.62
2018-10-16T02:51:08.637Z,12.65
2018-10-16T02:52:44.133Z,12.64
2018-10-16T02:54:19.651Z,12.56
2018-10-16T02:55:55.201Z,12.53
2018-10-16T02:57:30.741Z,12.55
2018-10-16T02:59:06.299Z,12.49
2018-10-16T03:00:41.826Z,12.52
2018-10-16T03:02:17.378Z,12.55
2018-10-16T03:03:52.919Z,12.56
2018-10-16T03:05:28.521Z,12.56
2018-10-16T03:07:03.986Z,12.62
2018-10-16T03:08:39.498Z,12.63
2018-10-16T03:10:15.050Z,12.55
2018-10-16T03:11:50.596Z,12.46
2018-10-16T03:13:26.140Z,12.45
2018-10-16T03:15:01.644Z,12.48
2018-10-16T03:16:37.147Z,12.47
2018-10-16T03:18:12.636Z,12.56
2018-10-16T03:19:48.230Z,12.53
2018-10-16T03:21:23.734Z,12.55
2018-10-16T03:22:59.250Z,12.55
2018-10-16T03:24:34.791Z,12.45
2018-10-16T03:26:10.361Z,12.37
2018-10-16T03:27:45.876Z,12.45
2018-10-16T03:29:21.404Z,12.50
2018-10-16T03:30:56.892Z,12.42
2018-10-16T03:32:32.462Z,12.45
2018-10-16T03:34:08.669Z,12.45
2018-10-16T03:35:44.196Z,12.54
2018-10-16T03:37:19.752Z,12.53
2018-10-16T03:38:55.226Z,12.49
2018-10-16T03:40:30.797Z,12.52
2018-10-16T03:42:06.335Z,12.46
2018-10-16T03:43:41.853Z,12.47
2018-10-16T03:45:17.408Z,12.57
2018-10-16T03:46:52.962Z,12.57
2018-10-16T03:48:28.490Z,12.44
2018-10-16T03:50:04.327Z,12.38
2018-10-16T03:51:40.532Z,12.43
2018-10-16T03:53:16.076Z,12.47
2018-10-16T03:54:51.545Z,12.46
2018-10-16T03:56:27.590Z,12.65
2018-10-16T03:58:03.205Z,12.71
2018-10-16T03:59:38.705Z,12.76
2018-10-16T04:01:14.289Z,12.66
2018-10-16T04:02:49.845Z,12.69
2018-10-16T04:04:25.469Z,12.69
2018-10-16T04:06:01.131Z,12.79
2018-10-16T04:07:36.843Z,12.81
2018-10-16T04:09:12.376Z,12.88
2018-10-16T04:10:47.888Z,12.70
2018-10-16T04:12:23.443Z,12.68
2018-10-16T04:13:59.077Z,12.77
2018-10-16T04:15:34.609Z,12.79
2018-10-16T04:17:10.099Z,12.81
2018-10-16T04:18:45.600Z,12.65
2018-10-16T04:20:21.170Z,12.62
2018-10-16T04:21:56.646Z,12.45
2018-10-16T04:23:32.157Z,12.42
2018-10-16T04:25:07.977Z,12.46
2018-10-16T04:26:43.473Z,12.42
2018-10-16T04:28:19.021Z,12.45
2018-10-16T04:29:54.545Z,12.39
2018-10-16T04:31:30.493Z,12.43
2018-10-16T04:33:06.055Z,12.56
2018-10-16T04:34:41.749Z,12.66
2018-10-16T04:36:17.419Z,12.65
2018-10-16T04:37:52.918Z,12.79
2018-10-16T04:39:28.730Z,12.84
2018-10-16T04:41:04.409Z,12.84
2018-10-16T04:42:40.235Z,12.75
2018-10-16T04:44:15.776Z,12.80
2018-10-16T04:45:51.742Z,12.68
2018-10-16T04:47:27.243Z,12.66
2018-10-16T04:49:02.827Z,12.58
2018-10-16T04:50:38.536Z,12.74
2018-10-16T04:52:14.121Z,12.89
2018-10-16T04:53:49.949Z,12.97
2018-10-16T04:55:25.475Z,13.04
2018-10-16T04:57:01.178Z,13.11
2018-10-16T04:58:36.865Z,13.10
2018-10-16T05:00:12.364Z,13.17
2018-10-16T05:01:47.900Z,13.18
2018-10-16T05:03:23.444Z,13.19
2018-10-16T05:04:58.948Z,13.17
2018-10-16T05:06:34.431Z,13.15
2018-10-16T05:08:09.906Z,13.05
2018-10-16T05:09:45.383Z,13.02
2018-10-16T05:11:20.853Z,12.99
2018-10-16T05:12:56.390Z,13.03
2018-10-16T05:14:31.840Z,12.91
2018-10-16T05:16:07.545Z,12.72
2018-10-16T05:17:43.038Z,12.77
2018-10-16T05:19:18.621Z,12.87
2018-10-16T05:20:54.019Z,12.88
2018-10-16T05:22:34.569Z,12.93
2018-10-16T05:24:11.286Z,13.00
2018-10-16T05:25:46.820Z,12.99
2018-10-16T05:27:22.250Z,13.07
2018-10-16T05:28:57.745Z,13.11
2018-10-16T05:30:33.262Z,13.15
2018-10-16T05:32:08.807Z,13.10
2018-10-16T05:33:44.331Z,13.16
2018-10-16T05:35:19.826Z,13.15
2018-10-16T05:36:55.387Z,13.09
2018-10-16T05:38:30.814Z,13.03
2018-10-16T05:40:06.813Z,13.02
2018-10-16T05:41:42.262Z,13.02
2018-10-16T05:43:17.749Z,13.02
2018-10-16T05:44:53.193Z,13.07
2018-10-16T05:46:28.677Z,13.09
2018-10-16T05:48:04.300Z,13.16
2018-10-16T05:49:39.707Z,13.22
2018-10-16T05:51:15.178Z,13.09
2018-10-16T05:52:50.690Z,13.19
2018-10-16T05:54:26.229Z,13.29
2018-10-16T05:56:03.931Z,13.36
2018-10-16T05:57:39.474Z,13.33
2018-10-16T05:59:14.900Z,13.27
2018-10-16T06:00:50.391Z,13.29
2018-10-16T06:02:25.846Z,13.21
2018-10-16T06:04:01.342Z,13.15
2018-10-16T06:05:36.879Z,13.26
2018-10-16T06:07:12.393Z,13.26
2018-10-16T06:08:47.869Z,13.31
2018-10-16T06:10:23.313Z,13.32
2018-10-16T06:11:58.822Z,13.27
2018-10-16T06:13:34.332Z,13.29
2018-10-16T06:15:10.539Z,13.32
2018-10-16T06:16:45.997Z,13.31
2018-10-16T06:18:21.479Z,13.31
2018-10-16T06:19:56.970Z,13.33
2018-10-16T06:21:32.462Z,13.34
2018-10-16T06:23:08.018Z,13.40
2018-10-16T06:24:43.518Z,13.44
2018-10-16T06:26:19.004Z,13.42
2018-10-16T06:27:54.596Z,13.29
2018-10-16T06:29:30.295Z,13.32
2018-10-16T06:31:05.725Z,13.27
2018-10-16T06:32:41.353Z,13.22
2018-10-16T06:34:16.825Z,13.27
2018-10-16T06:35:52.318Z,13.32
2018-10-16T06:37:27.832Z,13.27
2018-10-16T06:39:03.406Z,13.22
2018-10-16T06:40:39.104Z,13.16
2018-10-16T06:42:14.497Z,13.09
2018-10-16T06:43:50.050Z,13.01
2018-10-16T06:45:25.494Z,13.07
2018-10-16T06:47:00.941Z,13.14
2018-10-16T06:48:36.763Z,13.21
2018-10-16T06:50:12.081Z,13.27
2018-10-16T06:51:47.559Z,13.38
2018-10-16T06:53:23.239Z,13.55
2018-10-16T06:54:58.514Z,13.60
2018-10-16T06:56:33.969Z,13.75
2018-10-16T06:58:09.426Z,13.86
2018-10-16T06:59:45.196Z,13.79
2018-10-16T07:01:20.708Z,13.77
2018-10-16T07:02:56.145Z,13.68
2018-10-16T07:04:31.712Z,13.56
2018-10-16T07:06:07.234Z,13.72
2018-10-16T07:07:42.710Z,13.91
2018-10-16T07:09:18.150Z,14.02
2018-10-16T07:10:53.668Z,14.11
2018-10-16T07:12:29.122Z,14.20
2018-10-16T07:14:05.484Z,14.26
2018-10-16T07:15:40.944Z,14.35
2018-10-16T07:17:16.421Z,14.26
2018-10-16T07:18:51.880Z,14.30
2018-10-16T07:20:27.353Z,14.38
2018-10-16T07:22:05.002Z,14.33
2018-10-16T07:23:40.531Z,14.34
2018-10-16T07:25:15.922Z,14.42
2018-10-16T07:26:51.401Z,14.43
2018-10-16T07:28:26.911Z,14.57
2018-10-16T07:30:02.463Z,14.67
2018-10-16T07:31:37.938Z,14.59
2018-10-16T07:33:13.393Z,14.59
2018-10-16T07:34:48.909Z,14.65
2018-10-16T07:36:24.340Z,14.75
2018-10-16T07:37:59.859Z,14.85
2018-10-16T07:39:35.340Z,14.92
2018-10-16T07:41:10.866Z,14.89
2018-10-16T07:42:46.322Z,14.83
2018-10-16T07:44:21.839Z,14.91
2018-10-16T07:45:57.409Z,14.99
2018-10-16T07:47:32.837Z,15.00
2018-10-16T07:49:09.012Z,15.14
2018-10-16T07:50:44.508Z,15.27
2018-10-16T07:52:20.012Z,15.37
2018-10-16T07:53:55.433Z,15.45
2018-10-16T07:55:30.889Z,15.49
2018-10-16T07:57:06.375Z,15.41
2018-10-16T07:58:42.090Z,15.45
2018-10-16T08:00:17.771Z,15.44
2018-10-16T08:01:53.225Z,15.37
2018-10-16T08:03:28.692Z,15.43
2018-10-16T08:05:04.226Z,15.56
2018-10-16T08:06:39.669Z,15.64
2018-10-16T08:08:15.156Z,15.80
2018-10-16T08:09:50.600Z,16.00
2018-10-16T08:11:26.131Z,16.05
2018-10-16T08:13:01.569Z,16.17
2018-10-16T08:14:37.812Z,16.23
2018-10-16T08:16:13.282Z,16.30
2018-10-16T08:17:48.745Z,16.31
2018-10-16T08:19:24.185Z,16.44
2018-10-16T08:20:59.637Z,16.61
2018-10-16T08:22:35.082Z,16.79
2018-10-16T08:24:10.582Z,16.98
2018-10-16T08:25:46.157Z,17.16
2018-10-16T08:27:21.736Z,17.21
2018-10-16T08:28:57.199Z,16.98
2018-10-16T08:30:32.726Z,17.06
2018-10-16T08:32:08.255Z,17.21
2018-10-16T08:33:43.720Z,17.29
2018-10-16T08:35:19.173Z,17.31
2018-10-16T08:36:54.722Z,17.20
2018-10-16T08:38:42.128Z,17.33
2018-10-16T08:40:17.896Z,17.37
2018-10-16T08:44:09.580Z,17.37
2018-10-16T08:45:56.460Z,17.18
2018-10-16T08:47:43.268Z,17.35
2018-10-16T08:49:30.039Z,17.35
2018-10-16T08:51:42.337Z,17.48
2018-10-16T08:53:17.768Z,17.51
2018-10-16T08:54:53.315Z,17.52
2018-10-16T08:56:28.781Z,17.60
2018-10-16T08:58:05.058Z,17.60
2018-10-16T08:59:40.535Z,17.58
2018-10-16T09:01:15.997Z,17.61
2018-10-16T09:02:51.465Z,17.65
2018-10-16T09:04:26.951Z,17.67
2018-10-16T09:06:02.358Z,17.57
2018-10-16T09:07:37.892Z,17.53
2018-10-16T09:09:14.797Z,17.53
2018-10-16T09:10:50.232Z,17.53
2018-10-16T09:12:25.790Z,17.50
2018-10-16T09:14:01.350Z,17.50
2018-10-16T09:15:36.677Z,17.61
2018-10-16T09:17:12.113Z,17.70
2018-10-16T09:18:47.604Z,17.74
2018-10-16T09:20:23.039Z,17.77
2018-10-16T09:21:58.533Z,17.85
2018-10-16T09:23:34.048Z,17.79
2018-10-16T09:25:10.298Z,17.85
2018-10-16T09:26:45.725Z,17.85
2018-10-16T09:28:21.262Z,17.96
2018-10-16T09:29:56.740Z,18.07
2018-10-16T09:31:32.227Z,18.15
2018-10-16T09:33:07.682Z,18.17
2018-10-16T09:34:43.161Z,18.31
2018-10-16T09:36:18.634Z,18.43
2018-10-16T09:37:54.365Z,18.54
2018-10-16T09:39:29.771Z,18.66
2018-10-16T09:41:05.384Z,18.75
2018-10-16T09:42:40.846Z,18.82
2018-10-16T09:44:16.314Z,18.90
2018-10-16T09:45:51.807Z,19.00
2018-10-16T09:47:27.253Z,19.10
2018-10-16T09:49:02.759Z,19.23
2018-10-16T09:50:38.291Z,19.31
2018-10-16T09:52:13.864Z,19.39
2018-10-16T09:53:49.302Z,19.38
2018-10-16T09:55:24.812Z,19.33
2018-10-16T09:57:00.255Z,19.43
2018-10-16T09:58:35.686Z,19.66
2018-10-16T10:00:17.144Z,19.82
2018-10-16T10:01:55.290Z,19.93
2018-10-16T10:03:30.726Z,20.02
2018-10-16T10:05:06.185Z,20.09
2018-10-16T10:06:41.976Z,20.18
2018-10-16T10:08:17.501Z,20.25
2018-10-16T10:09:53.081Z,20.32
2018-10-16T10:11:28.549Z,20.39
2018-10-16T10:13:04.134Z,20.41
2018-10-16T10:14:39.601Z,20.47
2018-10-16T10:16:15.146Z,20.49
2018-10-16T10:17:50.651Z,20.37
2018-10-16T10:19:26.208Z,20.43
2018-10-16T10:21:01.701Z,20.49
2018-10-16T10:22:37.161Z,20.51
2018-10-16T10:24:12.583Z,20.54
2018-10-16T10:25:48.047Z,20.60
2018-10-16T10:27:23.497Z,20.62
2018-10-16T10:28:59.250Z,20.59
2018-10-16T10:30:34.769Z,20.56
2018-10-16T10:32:10.271Z,20.53
2018-10-16T10:33:45.783Z,20.48
2018-10-16T10:35:21.267Z,20.54
2018-10-16T10:36:56.817Z,20.58
2018-10-16T10:38:32.282Z,20.40
2018-10-16T10:40:07.934Z,20.38
2018-10-16T10:41:43.497Z,20.40
2018-10-16T10:43:19.033Z,20.22
2018-10-16T10:44:54.602Z,20.24
2018-10-16T10:46:30.061Z,20.24
2018-10-16T10:48:05.685Z,20.16
2018-10-16T10:49:41.163Z,20.18
2018-10-16T10:51:16.927Z,20.15
2018-10-16T10:52:52.085Z,20.29
2018-10-16T10:54:27.777Z,20.34
2018-10-16T10:56:03.215Z,20.30
2018-10-16T10:57:39.107Z,20.33
2018-10-16T10:59:14.583Z,20.39
2018-10-16T11:00:50.062Z,20.55
2018-10-16T11:02:25.544Z,20.57
2018-10-16T11:04:01.108Z,20.61
2018-10-16T11:05:36.593Z,20.78
2018-10-16T11:07:12.151Z,20.94
2018-10-16T11:08:47.691Z,20.83
2018-10-16T11:10:23.122Z,20.87
2018-10-16T11:11:58.961Z,20.97
2018-10-16T11:13:34.411Z,20.88
2018-10-16T11:15:09.986Z,20.95
2018-10-16T11:16:45.445Z,20.79
2018-10-16T11:18:20.923Z,20.92
2018-10-16T11:19:56.396Z,20.96
2018-10-16T11:21:31.864Z,20.98
2018-10-16T11:23:07.353Z,21.07
2018-10-16T11:24:42.837Z,21.24
2018-10-16T11:26:18.282Z,21.03
2018-10-16T11:27:53.748Z,21.05
2018-10-16T11:29:29.215Z,21.11
2018-10-16T11:31:05.099Z,21.12
2018-10-16T11:32:40.843Z,21.16
2018-10-16T11:34:16.303Z,21.34
2018-10-16T11:35:51.768Z,21.34
2018-10-16T11:37:27.315Z,21.22
2018-10-16T11:39:02.951Z,21.28
2018-10-16T11:40:38.388Z,21.12
2018-10-16T11:42:13.846Z,21.13
2018-10-16T11:43:49.304Z,21.13
2018-10-16T11:45:24.795Z,20.98
2018-10-16T11:47:00.272Z,21.04
2018-10-16T11:48:35.750Z,21.06
2018-10-16T11:50:12.130Z,21.13
2018-10-16T11:51:47.534Z,21.31
2018-10-16T11:53:23.014Z,21.54
2018-10-16T11:54:58.581Z,21.61
2018-10-16T11:56:34.202Z,21.69
2018-10-16T11:58:09.737Z,21.86
2018-10-16T11:59:46.285Z,21.92
2018-10-16T12:01:22.503Z,21.79
2018-10-16T12:02:58.001Z,21.80
2018-10-16T12:04:33.717Z,21.71
2018-10-16T12:06:09.762Z,21.72
2018-10-16T12:07:45.189Z,21.83
2018-10-16T12:09:20.638Z,21.82
2018-10-16T12:10:56.616Z,21.75
2018-10-16T12:12:32.120Z,21.83
2018-10-16T12:14:08.108Z,22.05
2018-10-16T12:15:43.592Z,22.20
2018-10-16T12:17:23.402Z,22.14
2018-10-16T12:19:13.383Z,22.01
2018-10-16T12:20:54.272Z,21.95
2018-10-16T12:22:29.864Z,22.03
2018-10-16T12:24:05.863Z,21.97
2018-10-16T12:25:41.427Z,21.96
2018-10-16T12:27:16.915Z,22.06
2018-10-16T12:28:52.452Z,22.17
2018-10-16T12:30:27.926Z,22.15
2018-10-16T12:32:03.419Z,22.09
2018-10-16T12:33:39.099Z,22.03
2018-10-16T12:35:14.581Z,21.99
2018-10-16T12:36:50.029Z,22.02
2018-10-16T12:38:25.625Z,22.08
2018-10-16T12:40:01.351Z,21.94
2018-10-16T12:41:36.817Z,22.11
2018-10-16T12:43:12.394Z,22.27
2018-10-16T12:44:47.838Z,22.27
2018-10-16T12:46:23.389Z,22.22
2018-10-16T12:47:59.824Z,22.19
2018-10-16T12:49:35.373Z,21.88
2018-10-16T12:51:11.044Z,21.48
2018-10-16T12:52:46.523Z,21.34
2018-10-16T12:54:22.113Z,21.32
2018-10-16T12:55:57.702Z,21.34
2018-10-16T12:57:33.215Z,21.17
2018-10-16T12:59:08.897Z,21.10
2018-10-16T13:00:44.297Z,21.24
2018-10-16T13:02:19.798Z,21.26
2018-10-16T13:03:55.225Z,21.27
2018-10-16T13:05:31.535Z,21.14
2018-10-16T13:07:39.943Z,21.12
2018-10-16T13:09:15.480Z,21.07
2018-10-16T13:10:51.004Z,21.10
2018-10-16T13:12:26.510Z,21.19
2018-10-16T13:14:01.996Z,21.22
2018-10-16T13:15:37.491Z,21.13
2018-10-16T13:17:12.995Z,21.18
2018-10-16T13:18:48.475Z,21.21
2018-10-16T13:20:23.910Z,21.21
2018-10-16T13:21:59.448Z,21.08
2018-10-16T13:23:34.982Z,21.09
2018-10-16T13:25:11.976Z,21.09
2018-10-16T13:26:47.435Z,21.03
2018-10-16T13:28:22.929Z,20.77
2018-10-16T13:29:58.440Z,20.48
2018-10-16T13:31:33.912Z,20.39
2018-10-16T13:33:09.358Z,20.44
2018-10-16T13:34:44.849Z,20.57
2018-10-16T13:36:20.382Z,20.57
2018-10-16T13:37:56.101Z,20.42
2018-10-16T13:39:31.562Z,20.34
2018-10-16T13:41:07.084Z,20.30
2018-10-16T13:42:42.636Z,20.30
2018-10-16T13:44:18.203Z,20.46
2018-10-16T13:45:53.707Z,20.51
2018-10-16T13:47:29.088Z,20.52
2018-10-16T13:49:04.894Z,20.57
2018-10-16T13:50:40.569Z,20.54
2018-10-16T13:52:16.145Z,20.52
2018-10-16T13:53:51.716Z,20.53
2018-10-16T13:55:27.213Z,20.41
2018-10-16T13:57:02.652Z,20.22
2018-10-16T13:58:38.137Z,20.23
2018-10-16T14:00:18.206Z,20.35
2018-10-16T14:01:53.680Z,20.46
2018-10-16T14:03:29.113Z,20.55
2018-10-16T14:05:04.966Z,20.28
2018-10-16T14:06:40.855Z,20.27
2018-10-16T14:08:16.442Z,20.04
2018-10-16T14:09:51.836Z,19.87
2018-10-16T14:11:27.310Z,19.83
2018-10-16T14:13:02.780Z,19.86
2018-10-16T14:14:38.290Z,19.86
2018-10-16T14:16:13.905Z,19.77
2018-10-16T14:17:49.329Z,19.81
2018-10-16T14:19:24.775Z,19.85
2018-10-16T14:21:00.243Z,19.88
2018-10-16T14:22:36.344Z,19.96
2018-10-16T14:24:11.863Z,20.06
2018-10-16T14:25:47.328Z,20.02
2018-10-16T14:27:22.798Z,19.79
2018-10-16T14:28:58.306Z,19.62
2018-10-16T14:30:33.749Z,19.72
2018-10-16T14:32:09.281Z,19.86
2018-10-16T14:33:44.714Z,20.08
2018-10-16T14:35:20.147Z,20.05
2018-10-16T14:36:55.995Z,19.90
2018-10-16T14:38:31.467Z,19.78
2018-10-16T14:40:08.236Z,19.78
2018-10-16T14:41:43.683Z,19.70
2018-10-16T14:43:19.146Z,19.71
2018-10-16T14:44:54.655Z,19.81
2018-10-16T14:46:30.192Z,19.91
2018-10-16T14:48:05.834Z,19.95
2018-10-16T14:49:47.883Z,19.95
2018-10-16T14:51:23.369Z,19.86
2018-10-16T14:52:58.859Z,19.72
2018-10-16T14:54:34.336Z,19.61
2018-10-16T14:56:09.916Z,19.48
2018-10-16T14:57:45.524Z,19.60
2018-10-16T14:59:20.902Z,19.67
2018-10-16T15:00:56.412Z,19.84
2018-10-16T15:02:31.892Z,19.79
2018-10-16T15:04:07.400Z,19.94
2018-10-16T15:05:43.363Z,19.89
2018-10-16T15:07:18.979Z,19.79
2018-10-16T15:08:54.459Z,19.77
2018-10-16T15:10:30.008Z,19.67
2018-10-16T15:12:05.548Z,19.62
2018-10-16T15:13:41.035Z,19.60
2018-10-16T15:15:16.508Z,19.56
2018-10-16T15:16:51.928Z,19.56
2018-10-16T15:18:27.341Z,19.66
2018-10-16T15:20:02.846Z,19.64
2018-10-16T15:21:38.379Z,19.65
2018-10-16T15:23:13.921Z,19.62
2018-10-16T15:24:49.381Z,19.39
2018-10-16T15:26:24.847Z,19.31
2018-10-16T15:28:00.376Z,19.19
2018-10-16T15:29:35.755Z,19.16
2018-10-16T15:31:11.258Z,19.13
2018-10-16T15:32:46.977Z,19.22
2018-10-16T15:34:22.459Z,19.20
2018-10-16T15:35:57.974Z,19.23
2018-10-16T15:37:33.432Z,19.20
2018-10-16T15:39:10.046Z,19.16
2018-10-16T15:40:45.661Z,19.19
2018-10-16T15:42:21.186Z,19.18
2018-10-16T15:43:56.821Z,19.20
2018-10-16T15:45:32.265Z,19.24
2018-10-16T15:47:07.987Z,19.25
2018-10-16T15:48:46.476Z,19.10
2018-10-16T15:50:22.669Z,19.01
2018-10-16T15:51:58.153Z,18.92
2018-10-16T15:53:33.661Z,18.95
2018-10-16T15:55:10.437Z,18.94
2018-10-16T15:56:46.049Z,18.89
2018-10-16T15:58:21.542Z,18.85
2018-10-16T15:59:56.993Z,18.91
2018-10-16T16:01:32.460Z,18.89
2018-10-16T16:03:07.939Z,18.82
2018-10-16T16:04:43.390Z,18.70
2018-10-16T16:06:18.918Z,18.57
2018-10-16T16:07:54.589Z,18.22
2018-10-16T16:09:30.027Z,18.51
2018-10-16T16:11:05.502Z,18.61
2018-10-16T16:12:41.296Z,18.64
2018-10-16T16:14:16.687Z,18.72
2018-10-16T16:15:52.208Z,18.70
2018-10-16T16:17:27.684Z,18.67
2018-10-16T16:19:03.550Z,18.58
2018-10-16T16:20:39.003Z,18.59
2018-10-16T16:22:14.571Z,18.50
2018-10-16T16:23:50.121Z,18.26
2018-10-16T16:25:25.618Z,18.31
2018-10-16T16:27:01.113Z,18.39
2018-10-16T16:28:36.641Z,18.37
2018-10-16T16:30:14.499Z,18.29
2018-10-16T16:31:50.021Z,18.21
2018-10-16T16:33:25.490Z,18.17
2018-10-16T16:35:01.017Z,18.22
2018-10-16T16:36:36.551Z,18.13
2018-10-16T16:38:12.070Z,18.12
2018-10-16T16:39:47.534Z,18.09
2018-10-16T16:41:23.102Z,18.10
2018-10-16T16:42:58.634Z,18.00
2018-10-16T16:44:34.232Z,18.03
2018-10-16T16:46:09.809Z,18.02
2018-10-16T16:47:45.246Z,18.03
2018-10-16T16:49:20.794Z,17.96
2018-10-16T16:50:56.368Z,17.97
2018-10-16T16:52:31.853Z,17.91
2018-10-16T16:55:55.933Z,17.93
2018-10-16T16:57:31.416Z,17.81
2018-10-16T16:59:06.973Z,17.69
2018-10-16T17:00:42.431Z,17.55
2018-10-16T17:02:17.896Z,17.52
2018-10-16T17:03:53.443Z,17.55
2018-10-16T17:05:28.927Z,17.55
2018-10-16T17:07:04.476Z,17.61
2018-10-16T17:08:40.064Z,17.67
2018-10-16T17:10:15.658Z,17.69
2018-10-16T17:11:51.141Z,17.61
2018-10-16T17:13:26.622Z,17.55
2018-10-16T17:15:02.145Z,17.46
2018-10-16T17:16:37.758Z,17.42
2018-10-16T17:18:13.320Z,17.32
2018-10-16T17:19:48.741Z,17.32
2018-10-16T17:21:24.334Z,17.33
2018-10-16T17:22:59.834Z,17.34
2018-10-16T17:24:35.502Z,17.33
2018-10-16T17:26:11.391Z,17.23
2018-10-16T17:27:46.538Z,17.32
2018-10-16T17:29:22.087Z,17.45
2018-10-16T17:30:57.606Z,17.36
2018-10-16T17:32:33.236Z,17.23
2018-10-16T17:34:09.063Z,17.15
2018-10-16T17:35:44.542Z,17.04
2018-10-16T17:37:20.720Z,16.98
2018-10-16T17:38:56.320Z,16.97
2018-10-16T17:40:31.901Z,16.92
2018-10-16T17:42:07.447Z,16.96
2018-10-16T17:43:43.062Z,16.94
2018-10-16T17:45:18.924Z,16.93
2018-10-16T17:46:54.599Z,16.83
2018-10-16T17:48:30.115Z,16.90
2018-10-16T17:50:07.587Z,16.89
2018-10-16T17:51:43.092Z,17.00
2018-10-16T17:53:18.652Z,17.00
2018-10-16T17:54:54.376Z,16.97
2018-10-16T17:56:29.866Z,16.88
2018-10-16T17:58:05.698Z,16.85
2018-10-16T17:59:41.183Z,16.79
2018-10-16T18:01:16.701Z,16.74
2018-10-16T18:02:52.624Z,16.79
2018-10-16T18:04:28.408Z,16.72
2018-10-16T18:06:03.967Z,16.61
2018-10-16T18:07:39.417Z,16.35
2018-10-16T18:09:14.968Z,16.64
2018-10-16T18:10:50.504Z,16.54
2018-10-16T18:12:26.064Z,16.55
2018-10-16T18:14:01.663Z,16.54
2018-10-16T18:15:37.165Z,16.59
2018-10-16T18:17:12.708Z,16.55
2018-10-16T18:18:48.226Z,16.58
2018-10-16T18:20:23.708Z,16.57
2018-10-16T18:21:59.255Z,16.55
2018-10-16T18:23:34.785Z,16.55
2018-10-16T18:25:10.869Z,16.57
2018-10-16T18:26:46.447Z,16.63
2018-10-16T18:28:21.941Z,16.65
2018-10-16T18:29:57.563Z,16.60
2018-10-16T18:31:33.025Z,16.51
2018-10-16T18:33:08.673Z,16.47
2018-10-16T18:34:44.387Z,16.40
2018-10-16T18:36:19.915Z,16.58
2018-10-16T18:37:55.511Z,16.67
2018-10-16T18:39:31.131Z,16.73
2018-10-16T18:41:06.682Z,16.66
2018-10-16T18:42:42.446Z,16.63
2018-10-16T18:44:18.126Z,16.61
2018-10-16T18:45:54.893Z,16.52
2018-10-16T18:47:31.505Z,16.39
2018-10-16T18:49:07.135Z,16.30
2018-10-16T18:50:42.763Z,16.27
2018-10-16T18:52:18.966Z,16.40
2018-10-16T18:53:55.076Z,16.51
2018-10-16T18:55:30.655Z,16.51
2018-10-16T18:57:06.620Z,16.61
2018-10-16T18:58:42.099Z,16.62
2018-10-16T19:00:18.725Z,16.45
2018-10-16T19:01:54.287Z,16.38
2018-10-16T19:03:29.779Z,16.28
2018-10-16T19:05:06.763Z,16.30
2018-10-16T19:06:42.273Z,16.31
2018-10-16T19:08:17.823Z,16.26
2018-10-16T19:09:53.328Z,16.19
2018-10-16T19:11:29.298Z,16.16
2018-10-16T19:13:05.520Z,16.15
2018-10-16T19:14:41.410Z,16.15
2018-10-16T19:16:16.987Z,16.05
2018-10-16T19:17:52.896Z,16.02
2018-10-16T19:19:28.580Z,15.95
2018-10-16T19:21:04.340Z,15.76
2018-10-16T19:22:40.040Z,15.69
2018-10-16T19:24:15.599Z,15.62
2018-10-16T19:25:51.130Z,15.63
2018-10-16T19:27:26.679Z,15.66
2018-10-16T19:29:02.248Z,15.64
2018-10-16T19:30:37.791Z,15.61
2018-10-16T19:32:13.578Z,15.50
2018-10-16T19:33:49.145Z,15.45
2018-10-16T19:35:24.797Z,15.38
2018-10-16T19:37:00.413Z,15.34
2018-10-16T19:38:36.138Z,15.29
2018-10-16T19:40:11.802Z,15.25
2018-10-16T19:41:47.339Z,15.23
2018-10-16T19:43:22.944Z,15.21
2018-10-16T19:44:59.408Z,15.19
2018-10-16T19:46:34.974Z,15.16
2018-10-16T19:48:10.520Z,15.18
2018-10-16T19:49:46.074Z,15.13
2018-10-16T19:51:21.587Z,15.07
2018-10-16T19:52:57.039Z,15.03
2018-10-16T19:54:32.588Z,14.99
2018-10-16T19:56:08.086Z,15.02
2018-10-16T19:57:43.606Z,15.11
2018-10-16T19:59:19.164Z,15.13
2018-10-16T20:00:54.735Z,15.04
2018-10-16T20:02:30.325Z,14.91
2018-10-16T20:04:05.849Z,14.83
2018-10-16T20:05:41.514Z,14.81
2018-10-16T20:07:17.118Z,14.82
2018-10-16T20:08:52.521Z,14.80
2018-10-16T20:10:28.092Z,14.75
2018-10-16T20:12:03.732Z,14.73
2018-10-16T20:13:39.359Z,14.66
2018-10-16T20:15:14.897Z,14.64
2018-10-16T20:16:50.484Z,14.66
2018-10-16T20:18:26.052Z,14.62
2018-10-16T20:20:01.619Z,14.61
2018-10-16T20:21:37.300Z,14.63
2018-10-16T20:23:12.898Z,14.60
2018-10-16T20:24:48.666Z,14.58
2018-10-16T20:26:24.230Z,14.59
2018-10-16T20:27:59.816Z,14.64
2018-10-16T20:29:35.543Z,14.72
2018-10-16T20:31:11.341Z,14.71
2018-10-16T20:32:46.877Z,14.57
2018-10-16T20:34:22.435Z,14.46
2018-10-16T20:35:57.978Z,14.58
2018-10-16T20:37:33.573Z,14.72